sensor_id;sensor_type;location;lat;lon;timestamp;P1;durP1;ratioP1;P2;durP2;ratioP2
4575;SDS011;2300;51.874;8.430;2023-09-12T00:00:27;10.43;;;7.50;;
4575;SDS011;2300;51.874;8.430;2023-09-12T00:02:54;10.93;;;7.15;;
4575;SDS011;2300;51.874;8.430;2023-09-12T00:05:21;10.85;;;7.38;;
4575;SDS011;2300;51.874;8.430;2023-09-12T00:07:48;9.45;;;7.90;;
4575;SDS011;2300;51.874;8.430;2023-09-12T00:10:18;10.63;;;7.10;;
4575;SDS011;2300;51.874;8.430;2023-09-12T00:12:44;9.88;;;7.15;;
4575;SDS011;2300;51.874;8.430;2023-09-12T00:15:11;9.68;;;8.07;;
4575;SDS011;2300;51.874;8.430;2023-09-12T00:17:38;11.25;;;8.20;;
4575;SDS011;2300;51.874;8.430;2023-09-12T00:20:07;11.13;;;7.55;;
4575;SDS011;2300;51.874;8.430;2023-09-12T00:22:34;10.52;;;7.43;;
4575;SDS011;2300;51.874;8.430;2023-09-12T00:25:01;13.68;;;7.00;;
4575;SDS011;2300;51.874;8.430;2023-09-12T00:27:27;8.98;;;6.63;;
4575;SDS011;2300;51.874;8.430;2023-09-12T00:29:54;10.63;;;6.57;;
4575;SDS011;2300;51.874;8.430;2023-09-12T00:32:20;9.38;;;6.50;;
4575;SDS011;2300;51.874;8.430;2023-09-12T00:34:47;10.23;;;6.82;;
4575;SDS011;2300;51.874;8.430;2023-09-12T00:37:15;11.20;;;6.38;;
4575;SDS011;2300;51.874;8.430;2023-09-12T00:39:41;8.68;;;6.13;;
4575;SDS011;2300;51.874;8.430;2023-09-12T00:42:08;8.43;;;6.05;;
4575;SDS011;2300;51.874;8.430;2023-09-12T00:44:34;10.02;;;6.80;;
4575;SDS011;2300;51.874;8.430;2023-09-12T00:47:01;11.90;;;7.03;;
4575;SDS011;2300;51.874;8.430;2023-09-12T00:49:29;10.25;;;7.10;;
4575;SDS011;2300;51.874;8.430;2023-09-12T00:51:57;9.23;;;6.93;;
4575;SDS011;2300;51.874;8.430;2023-09-12T00:54:26;10.00;;;6.13;;
4575;SDS011;2300;51.874;8.430;2023-09-12T00:56:53;10.40;;;6.70;;
4575;SDS011;2300;51.874;8.430;2023-09-12T00:59:20;11.13;;;6.60;;
4575;SDS011;2300;51.874;8.430;2023-09-12T01:01:47;7.47;;;6.30;;
4575;SDS011;2300;51.874;8.430;2023-09-12T01:04:14;10.68;;;7.05;;
4575;SDS011;2300;51.874;8.430;2023-09-12T01:06:40;8.05;;;6.28;;
4575;SDS011;2300;51.874;8.430;2023-09-12T01:09:07;11.07;;;7.65;;
4575;SDS011;2300;51.874;8.430;2023-09-12T01:11:35;12.50;;;7.85;;
4575;SDS011;2300;51.874;8.430;2023-09-12T01:14:02;10.30;;;8.80;;
4575;SDS011;2300;51.874;8.430;2023-09-12T01:16:29;11.50;;;8.52;;
4575;SDS011;2300;51.874;8.430;2023-09-12T01:18:55;13.35;;;9.35;;
4575;SDS011;2300;51.874;8.430;2023-09-12T01:21:29;10.18;;;8.45;;
4575;SDS011;2300;51.874;8.430;2023-09-12T01:24:25;11.32;;;8.82;;
4575;SDS011;2300;51.874;8.430;2023-09-12T01:27:21;11.23;;;9.10;;
4575;SDS011;2300;51.874;8.430;2023-09-12T01:29:53;10.50;;;8.50;;
4575;SDS011;2300;51.874;8.430;2023-09-12T01:32:22;12.13;;;10.02;;
4575;SDS011;2300;51.874;8.430;2023-09-12T01:34:49;11.18;;;9.93;;
4575;SDS011;2300;51.874;8.430;2023-09-12T01:37:16;13.07;;;9.90;;
4575;SDS011;2300;51.874;8.430;2023-09-12T01:39:42;12.43;;;9.50;;
4575;SDS011;2300;51.874;8.430;2023-09-12T01:42:09;13.10;;;10.40;;
4575;SDS011;2300;51.874;8.430;2023-09-12T01:44:42;11.82;;;9.85;;
4575;SDS011;2300;51.874;8.430;2023-09-12T01:47:10;14.38;;;10.57;;
4575;SDS011;2300;51.874;8.430;2023-09-12T01:49:37;13.35;;;10.90;;
4575;SDS011;2300;51.874;8.430;2023-09-12T01:52:08;15.60;;;11.30;;
4575;SDS011;2300;51.874;8.430;2023-09-12T01:54:36;16.58;;;11.60;;
4575;SDS011;2300;51.874;8.430;2023-09-12T01:57:04;13.07;;;10.95;;
4575;SDS011;2300;51.874;8.430;2023-09-12T01:59:31;14.10;;;12.13;;
4575;SDS011;2300;51.874;8.430;2023-09-12T02:01:59;13.20;;;11.80;;
4575;SDS011;2300;51.874;8.430;2023-09-12T02:04:27;14.38;;;12.07;;
4575;SDS011;2300;51.874;8.430;2023-09-12T02:06:53;15.57;;;12.13;;
4575;SDS011;2300;51.874;8.430;2023-09-12T02:09:20;16.50;;;12.57;;
4575;SDS011;2300;51.874;8.430;2023-09-12T02:11:48;14.88;;;12.10;;
4575;SDS011;2300;51.874;8.430;2023-09-12T02:14:15;14.48;;;11.68;;
4575;SDS011;2300;51.874;8.430;2023-09-12T02:16:43;13.90;;;12.27;;
4575;SDS011;2300;51.874;8.430;2023-09-12T02:19:11;17.00;;;12.35;;
4575;SDS011;2300;51.874;8.430;2023-09-12T02:21:37;16.88;;;14.23;;
4575;SDS011;2300;51.874;8.430;2023-09-12T02:24:05;18.50;;;16.42;;
4575;SDS011;2300;51.874;8.430;2023-09-12T02:26:32;26.10;;;18.50;;
4575;SDS011;2300;51.874;8.430;2023-09-12T02:29:01;27.05;;;22.70;;
4575;SDS011;2300;51.874;8.430;2023-09-12T02:31:28;29.17;;;21.15;;
4575;SDS011;2300;51.874;8.430;2023-09-12T02:33:54;25.63;;;21.33;;
4575;SDS011;2300;51.874;8.430;2023-09-12T02:36:22;29.63;;;20.65;;
4575;SDS011;2300;51.874;8.430;2023-09-12T02:38:49;25.35;;;19.23;;
4575;SDS011;2300;51.874;8.430;2023-09-12T02:41:16;27.25;;;19.13;;
4575;SDS011;2300;51.874;8.430;2023-09-12T02:43:43;22.40;;;18.55;;
4575;SDS011;2300;51.874;8.430;2023-09-12T02:46:09;27.02;;;20.20;;
4575;SDS011;2300;51.874;8.430;2023-09-12T02:48:36;20.20;;;17.50;;
4575;SDS011;2300;51.874;8.430;2023-09-12T02:51:02;18.02;;;15.57;;
4575;SDS011;2300;51.874;8.430;2023-09-12T02:53:30;20.35;;;16.20;;
4575;SDS011;2300;51.874;8.430;2023-09-12T02:55:57;19.08;;;15.13;;
4575;SDS011;2300;51.874;8.430;2023-09-12T02:58:24;15.90;;;14.18;;
4575;SDS011;2300;51.874;8.430;2023-09-12T03:00:50;16.42;;;12.98;;
4575;SDS011;2300;51.874;8.430;2023-09-12T03:03:19;16.02;;;13.63;;
4575;SDS011;2300;51.874;8.430;2023-09-12T03:05:46;18.67;;;13.48;;
4575;SDS011;2300;51.874;8.430;2023-09-12T03:08:12;16.95;;;13.38;;
4575;SDS011;2300;51.874;8.430;2023-09-12T03:10:40;15.93;;;13.38;;
4575;SDS011;2300;51.874;8.430;2023-09-12T03:13:07;16.90;;;13.68;;
4575;SDS011;2300;51.874;8.430;2023-09-12T03:15:35;17.42;;;14.73;;
4575;SDS011;2300;51.874;8.430;2023-09-12T03:18:03;17.58;;;14.48;;
4575;SDS011;2300;51.874;8.430;2023-09-12T03:20:31;19.63;;;14.98;;
4575;SDS011;2300;51.874;8.430;2023-09-12T03:22:57;18.65;;;15.27;;
4575;SDS011;2300;51.874;8.430;2023-09-12T03:25:24;18.98;;;14.57;;
4575;SDS011;2300;51.874;8.430;2023-09-12T03:27:52;18.73;;;14.18;;
4575;SDS011;2300;51.874;8.430;2023-09-12T03:30:19;19.38;;;14.00;;
4575;SDS011;2300;51.874;8.430;2023-09-12T03:32:46;21.55;;;14.90;;
4575;SDS011;2300;51.874;8.430;2023-09-12T03:35:13;19.52;;;15.20;;
4575;SDS011;2300;51.874;8.430;2023-09-12T03:37:39;17.80;;;15.25;;
4575;SDS011;2300;51.874;8.430;2023-09-12T03:40:08;17.13;;;14.73;;
4575;SDS011;2300;51.874;8.430;2023-09-12T03:42:36;21.95;;;15.60;;
4575;SDS011;2300;51.874;8.430;2023-09-12T03:45:04;18.00;;;15.38;;
4575;SDS011;2300;51.874;8.430;2023-09-12T03:47:32;19.20;;;15.10;;
4575;SDS011;2300;51.874;8.430;2023-09-12T03:51:18;18.17;;;13.70;;
4575;SDS011;2300;51.874;8.430;2023-09-12T03:53:08;15.90;;;12.57;;
4575;SDS011;2300;51.874;8.430;2023-09-12T03:55:35;16.55;;;11.80;;
4575;SDS011;2300;51.874;8.430;2023-09-12T03:58:01;13.70;;;9.88;;
4575;SDS011;2300;51.874;8.430;2023-09-12T04:00:30;13.02;;;10.05;;
4575;SDS011;2300;51.874;8.430;2023-09-12T04:02:56;10.65;;;8.60;;
4575;SDS011;2300;51.874;8.430;2023-09-12T04:05:24;12.52;;;7.63;;
4575;SDS011;2300;51.874;8.430;2023-09-12T04:07:51;8.90;;;7.30;;
4575;SDS011;2300;51.874;8.430;2023-09-12T04:10:18;8.20;;;7.20;;
4575;SDS011;2300;51.874;8.430;2023-09-12T04:12:44;9.43;;;6.20;;
4575;SDS011;2300;51.874;8.430;2023-09-12T04:15:11;8.38;;;6.30;;
4575;SDS011;2300;51.874;8.430;2023-09-12T04:17:39;9.27;;;6.45;;
4575;SDS011;2300;51.874;8.430;2023-09-12T04:20:06;8.70;;;6.47;;
4575;SDS011;2300;51.874;8.430;2023-09-12T04:22:33;10.10;;;6.60;;
4575;SDS011;2300;51.874;8.430;2023-09-12T04:24:59;8.38;;;6.75;;
4575;SDS011;2300;51.874;8.430;2023-09-12T04:27:26;7.43;;;6.32;;
4575;SDS011;2300;51.874;8.430;2023-09-12T04:29:53;9.05;;;6.30;;
4575;SDS011;2300;51.874;8.430;2023-09-12T04:32:19;7.25;;;6.25;;
4575;SDS011;2300;51.874;8.430;2023-09-12T04:34:49;7.82;;;6.25;;
4575;SDS011;2300;51.874;8.430;2023-09-12T04:37:16;7.65;;;6.43;;
4575;SDS011;2300;51.874;8.430;2023-09-12T04:39:43;8.57;;;6.38;;
4575;SDS011;2300;51.874;8.430;2023-09-12T04:42:10;7.63;;;6.07;;
4575;SDS011;2300;51.874;8.430;2023-09-12T04:44:36;9.05;;;5.78;;
4575;SDS011;2300;51.874;8.430;2023-09-12T04:47:05;8.18;;;5.60;;
4575;SDS011;2300;51.874;8.430;2023-09-12T04:49:32;10.32;;;5.70;;
4575;SDS011;2300;51.874;8.430;2023-09-12T04:52:00;8.40;;;5.40;;
4575;SDS011;2300;51.874;8.430;2023-09-12T04:54:26;6.82;;;5.40;;
4575;SDS011;2300;51.874;8.430;2023-09-12T04:56:53;7.00;;;5.30;;
4575;SDS011;2300;51.874;8.430;2023-09-12T04:59:19;7.85;;;4.28;;
4575;SDS011;2300;51.874;8.430;2023-09-12T05:01:46;6.65;;;4.50;;
4575;SDS011;2300;51.874;8.430;2023-09-12T05:04:12;8.85;;;5.28;;
4575;SDS011;2300;51.874;8.430;2023-09-12T05:06:39;24.95;;;8.95;;
4575;SDS011;2300;51.874;8.430;2023-09-12T05:09:07;20.05;;;8.35;;
4575;SDS011;2300;51.874;8.430;2023-09-12T05:11:36;16.67;;;9.30;;
4575;SDS011;2300;51.874;8.430;2023-09-12T05:14:02;19.40;;;10.35;;
4575;SDS011;2300;51.874;8.430;2023-09-12T05:16:29;14.45;;;9.35;;
4575;SDS011;2300;51.874;8.430;2023-09-12T05:18:56;14.10;;;8.85;;
4575;SDS011;2300;51.874;8.430;2023-09-12T05:21:22;12.55;;;9.32;;
4575;SDS011;2300;51.874;8.430;2023-09-12T05:23:49;16.85;;;9.93;;
4575;SDS011;2300;51.874;8.430;2023-09-12T05:26:17;15.25;;;10.30;;
4575;SDS011;2300;51.874;8.430;2023-09-12T05:28:43;14.88;;;10.52;;
4575;SDS011;2300;51.874;8.430;2023-09-12T05:31:10;16.13;;;10.88;;
4575;SDS011;2300;51.874;8.430;2023-09-12T05:33:36;15.32;;;10.68;;
4575;SDS011;2300;51.874;8.430;2023-09-12T05:36:03;13.45;;;10.50;;
4575;SDS011;2300;51.874;8.430;2023-09-12T05:38:30;14.27;;;10.23;;
4575;SDS011;2300;51.874;8.430;2023-09-12T05:40:57;14.23;;;10.18;;
4575;SDS011;2300;51.874;8.430;2023-09-12T05:43:25;14.02;;;11.27;;
4575;SDS011;2300;51.874;8.430;2023-09-12T05:45:51;17.55;;;10.73;;
4575;SDS011;2300;51.874;8.430;2023-09-12T05:48:18;19.85;;;11.10;;
4575;SDS011;2300;51.874;8.430;2023-09-12T05:50:44;21.58;;;12.02;;
4575;SDS011;2300;51.874;8.430;2023-09-12T05:53:11;21.70;;;11.93;;
4575;SDS011;2300;51.874;8.430;2023-09-12T05:55:37;19.80;;;12.40;;
4575;SDS011;2300;51.874;8.430;2023-09-12T05:58:04;15.95;;;12.25;;
4575;SDS011;2300;51.874;8.430;2023-09-12T06:00:33;18.15;;;12.70;;
4575;SDS011;2300;51.874;8.430;2023-09-12T06:02:59;22.02;;;14.68;;
4575;SDS011;2300;51.874;8.430;2023-09-12T06:05:26;24.42;;;14.93;;
4575;SDS011;2300;51.874;8.430;2023-09-12T06:07:52;22.95;;;14.68;;
4575;SDS011;2300;51.874;8.430;2023-09-12T06:10:19;19.70;;;15.10;;
4575;SDS011;2300;51.874;8.430;2023-09-12T06:12:46;21.55;;;14.88;;
4575;SDS011;2300;51.874;8.430;2023-09-12T06:15:12;18.90;;;13.85;;
4575;SDS011;2300;51.874;8.430;2023-09-12T06:17:40;19.17;;;14.52;;
4575;SDS011;2300;51.874;8.430;2023-09-12T06:20:07;25.40;;;16.42;;
4575;SDS011;2300;51.874;8.430;2023-09-12T06:22:35;22.17;;;15.18;;
4575;SDS011;2300;51.874;8.430;2023-09-12T06:25:01;21.63;;;15.25;;
4575;SDS011;2300;51.874;8.430;2023-09-12T06:27:28;21.38;;;15.48;;
4575;SDS011;2300;51.874;8.430;2023-09-12T06:29:56;20.75;;;14.93;;
4575;SDS011;2300;51.874;8.430;2023-09-12T06:32:23;19.23;;;15.68;;
4575;SDS011;2300;51.874;8.430;2023-09-12T06:34:51;19.52;;;15.57;;
4575;SDS011;2300;51.874;8.430;2023-09-12T06:37:17;21.10;;;15.15;;
4575;SDS011;2300;51.874;8.430;2023-09-12T06:39:44;20.73;;;15.07;;
4575;SDS011;2300;51.874;8.430;2023-09-12T06:42:11;21.10;;;14.80;;
4575;SDS011;2300;51.874;8.430;2023-09-12T06:44:37;20.40;;;15.05;;
4575;SDS011;2300;51.874;8.430;2023-09-12T06:47:04;19.80;;;14.38;;
4575;SDS011;2300;51.874;8.430;2023-09-12T06:49:31;19.17;;;14.85;;
4575;SDS011;2300;51.874;8.430;2023-09-12T06:51:59;21.65;;;16.13;;
4575;SDS011;2300;51.874;8.430;2023-09-12T06:54:26;24.42;;;16.85;;
4575;SDS011;2300;51.874;8.430;2023-09-12T06:56:52;21.35;;;16.77;;
4575;SDS011;2300;51.874;8.430;2023-09-12T06:59:19;25.25;;;18.25;;
4575;SDS011;2300;51.874;8.430;2023-09-12T07:01:45;28.48;;;21.20;;
4575;SDS011;2300;51.874;8.430;2023-09-12T07:04:12;27.98;;;21.73;;
4575;SDS011;2300;51.874;8.430;2023-09-12T07:06:39;25.15;;;19.67;;
4575;SDS011;2300;51.874;8.430;2023-09-12T07:09:06;26.52;;;19.98;;
4575;SDS011;2300;51.874;8.430;2023-09-12T07:11:33;28.58;;;19.45;;
4575;SDS011;2300;51.874;8.430;2023-09-12T07:14:00;27.42;;;20.02;;
4575;SDS011;2300;51.874;8.430;2023-09-12T07:16:31;30.17;;;21.00;;
4575;SDS011;2300;51.874;8.430;2023-09-12T07:18:58;28.02;;;20.73;;
4575;SDS011;2300;51.874;8.430;2023-09-12T07:21:24;24.88;;;19.40;;
4575;SDS011;2300;51.874;8.430;2023-09-12T07:23:51;28.00;;;20.90;;
4575;SDS011;2300;51.874;8.430;2023-09-12T07:26:19;29.88;;;21.85;;
4575;SDS011;2300;51.874;8.430;2023-09-12T07:28:45;35.05;;;23.05;;
4575;SDS011;2300;51.874;8.430;2023-09-12T07:31:12;33.20;;;23.60;;
4575;SDS011;2300;51.874;8.430;2023-09-12T07:33:39;35.70;;;25.60;;
4575;SDS011;2300;51.874;8.430;2023-09-12T07:36:06;34.92;;;25.63;;
4575;SDS011;2300;51.874;8.430;2023-09-12T07:38:32;32.92;;;24.45;;
4575;SDS011;2300;51.874;8.430;2023-09-12T07:41:00;35.45;;;25.48;;
4575;SDS011;2300;51.874;8.430;2023-09-12T07:43:29;37.17;;;26.48;;
4575;SDS011;2300;51.874;8.430;2023-09-12T07:45:56;32.70;;;24.65;;
4575;SDS011;2300;51.874;8.430;2023-09-12T07:48:23;31.67;;;24.17;;
4575;SDS011;2300;51.874;8.430;2023-09-12T07:50:50;35.22;;;25.25;;
4575;SDS011;2300;51.874;8.430;2023-09-12T07:53:17;38.08;;;25.88;;
4575;SDS011;2300;51.874;8.430;2023-09-12T07:55:43;34.92;;;26.10;;
4575;SDS011;2300;51.874;8.430;2023-09-12T07:58:11;34.60;;;25.75;;
4575;SDS011;2300;51.874;8.430;2023-09-12T08:00:40;34.28;;;26.45;;
4575;SDS011;2300;51.874;8.430;2023-09-12T08:03:07;34.45;;;26.42;;
4575;SDS011;2300;51.874;8.430;2023-09-12T08:05:33;37.20;;;27.52;;
4575;SDS011;2300;51.874;8.430;2023-09-12T08:08:00;36.30;;;27.60;;
4575;SDS011;2300;51.874;8.430;2023-09-12T08:10:27;37.58;;;28.60;;
4575;SDS011;2300;51.874;8.430;2023-09-12T08:12:53;39.20;;;29.13;;
4575;SDS011;2300;51.874;8.430;2023-09-12T08:15:20;43.13;;;29.70;;
4575;SDS011;2300;51.874;8.430;2023-09-12T08:17:48;41.38;;;29.88;;
4575;SDS011;2300;51.874;8.430;2023-09-12T08:20:17;38.25;;;29.35;;
4575;SDS011;2300;51.874;8.430;2023-09-12T08:22:44;36.78;;;28.65;;
4575;SDS011;2300;51.874;8.430;2023-09-12T08:25:10;32.42;;;24.10;;
4575;SDS011;2300;51.874;8.430;2023-09-12T08:27:37;33.47;;;25.45;;
4575;SDS011;2300;51.874;8.430;2023-09-12T08:30:04;30.23;;;22.58;;
4575;SDS011;2300;51.874;8.430;2023-09-12T08:32:31;27.10;;;19.08;;
4575;SDS011;2300;51.874;8.430;2023-09-12T08:34:59;24.80;;;18.17;;
4575;SDS011;2300;51.874;8.430;2023-09-12T08:37:26;24.00;;;17.48;;
4575;SDS011;2300;51.874;8.430;2023-09-12T08:39:53;25.63;;;18.00;;
4575;SDS011;2300;51.874;8.430;2023-09-12T08:42:23;25.75;;;18.05;;
4575;SDS011;2300;51.874;8.430;2023-09-12T08:44:52;29.92;;;18.63;;
4575;SDS011;2300;51.874;8.430;2023-09-12T08:47:18;28.85;;;18.58;;
4575;SDS011;2300;51.874;8.430;2023-09-12T08:49:48;28.40;;;19.98;;
4575;SDS011;2300;51.874;8.430;2023-09-12T08:52:16;26.42;;;19.52;;
4575;SDS011;2300;51.874;8.430;2023-09-12T08:54:43;27.92;;;19.50;;
4575;SDS011;2300;51.874;8.430;2023-09-12T08:57:09;22.38;;;17.50;;
4575;SDS011;2300;51.874;8.430;2023-09-12T08:59:38;22.73;;;17.75;;
4575;SDS011;2300;51.874;8.430;2023-09-12T09:02:07;24.13;;;18.60;;
4575;SDS011;2300;51.874;8.430;2023-09-12T09:04:35;22.27;;;17.83;;
4575;SDS011;2300;51.874;8.430;2023-09-12T09:07:05;24.40;;;19.13;;
4575;SDS011;2300;51.874;8.430;2023-09-12T09:09:35;29.48;;;20.92;;
4575;SDS011;2300;51.874;8.430;2023-09-12T09:12:02;27.15;;;20.67;;
4575;SDS011;2300;51.874;8.430;2023-09-12T09:14:33;25.27;;;19.80;;
4575;SDS011;2300;51.874;8.430;2023-09-12T09:16:59;27.67;;;20.02;;
4575;SDS011;2300;51.874;8.430;2023-09-12T09:19:33;27.52;;;19.45;;
4575;SDS011;2300;51.874;8.430;2023-09-12T09:22:06;28.17;;;20.02;;
4575;SDS011;2300;51.874;8.430;2023-09-12T09:24:34;27.25;;;20.10;;
4575;SDS011;2300;51.874;8.430;2023-09-12T09:27:01;29.92;;;22.48;;
4575;SDS011;2300;51.874;8.430;2023-09-12T09:29:28;32.03;;;22.67;;
4575;SDS011;2300;51.874;8.430;2023-09-12T09:31:57;34.60;;;24.35;;
4575;SDS011;2300;51.874;8.430;2023-09-12T09:34:25;31.00;;;24.10;;
4575;SDS011;2300;51.874;8.430;2023-09-12T09:36:54;34.95;;;24.45;;
4575;SDS011;2300;51.874;8.430;2023-09-12T09:39:22;39.40;;;24.63;;
4575;SDS011;2300;51.874;8.430;2023-09-12T09:41:52;38.40;;;26.73;;
4575;SDS011;2300;51.874;8.430;2023-09-12T09:44:20;35.50;;;25.88;;
4575;SDS011;2300;51.874;8.430;2023-09-12T09:46:50;39.63;;;28.38;;
4575;SDS011;2300;51.874;8.430;2023-09-12T09:49:19;38.83;;;28.13;;
4575;SDS011;2300;51.874;8.430;2023-09-12T09:51:46;36.60;;;28.05;;
4575;SDS011;2300;51.874;8.430;2023-09-12T09:54:13;34.35;;;26.38;;
4575;SDS011;2300;51.874;8.430;2023-09-12T09:56:47;35.95;;;26.38;;
4575;SDS011;2300;51.874;8.430;2023-09-12T09:59:16;32.80;;;24.48;;
4575;SDS011;2300;51.874;8.430;2023-09-12T10:01:44;35.30;;;25.52;;
4575;SDS011;2300;51.874;8.430;2023-09-12T10:04:11;36.30;;;25.27;;
4575;SDS011;2300;51.874;8.430;2023-09-12T10:06:38;36.47;;;25.63;;
4575;SDS011;2300;51.874;8.430;2023-09-12T10:09:09;40.35;;;26.08;;
4575;SDS011;2300;51.874;8.430;2023-09-12T10:11:37;35.85;;;25.90;;
4575;SDS011;2300;51.874;8.430;2023-09-12T10:14:06;41.65;;;26.38;;
4575;SDS011;2300;51.874;8.430;2023-09-12T10:16:34;42.38;;;24.85;;
4575;SDS011;2300;51.874;8.430;2023-09-12T10:19:10;36.13;;;23.92;;
4575;SDS011;2300;51.874;8.430;2023-09-12T10:21:45;35.92;;;24.10;;
4575;SDS011;2300;51.874;8.430;2023-09-12T10:24:14;35.13;;;24.98;;
4575;SDS011;2300;51.874;8.430;2023-09-12T10:26:41;39.63;;;26.88;;
4575;SDS011;2300;51.874;8.430;2023-09-12T10:29:10;40.35;;;26.35;;
4575;SDS011;2300;51.874;8.430;2023-09-12T10:31:40;33.25;;;23.23;;
4575;SDS011;2300;51.874;8.430;2023-09-12T10:34:07;33.28;;;23.23;;
4575;SDS011;2300;51.874;8.430;2023-09-12T10:36:38;30.50;;;21.38;;
4575;SDS011;2300;51.874;8.430;2023-09-12T10:39:06;34.90;;;22.08;;
4575;SDS011;2300;51.874;8.430;2023-09-12T10:41:35;28.75;;;20.10;;
4575;SDS011;2300;51.874;8.430;2023-09-12T10:44:05;24.45;;;17.70;;
4575;SDS011;2300;51.874;8.430;2023-09-12T10:46:35;20.98;;;16.63;;
4575;SDS011;2300;51.874;8.430;2023-09-12T10:49:04;20.88;;;15.60;;
4575;SDS011;2300;51.874;8.430;2023-09-12T10:51:33;21.30;;;15.05;;
4575;SDS011;2300;51.874;8.430;2023-09-12T10:54:03;20.05;;;14.02;;
4575;SDS011;2300;51.874;8.430;2023-09-12T10:56:30;19.88;;;14.65;;
4575;SDS011;2300;51.874;8.430;2023-09-12T10:59:13;20.58;;;14.57;;
4575;SDS011;2300;51.874;8.430;2023-09-12T11:01:40;19.55;;;14.50;;
4575;SDS011;2300;51.874;8.430;2023-09-12T11:12:45;22.20;;;18.08;;
4575;SDS011;2300;51.874;8.430;2023-09-12T11:15:12;23.08;;;18.02;;
4575;SDS011;2300;51.874;8.430;2023-09-12T11:17:40;20.88;;;17.30;;
4575;SDS011;2300;51.874;8.430;2023-09-12T11:20:09;19.85;;;17.02;;
4575;SDS011;2300;51.874;8.430;2023-09-12T11:22:37;17.20;;;14.60;;
4575;SDS011;2300;51.874;8.430;2023-09-12T11:25:05;17.38;;;13.15;;
4575;SDS011;2300;51.874;8.430;2023-09-12T11:27:43;16.45;;;11.00;;
4575;SDS011;2300;51.874;8.430;2023-09-12T11:30:11;9.85;;;7.35;;
4575;SDS011;2300;51.874;8.430;2023-09-12T11:32:40;11.38;;;8.48;;
4575;SDS011;2300;51.874;8.430;2023-09-12T11:35:11;7.60;;;6.30;;
4575;SDS011;2300;51.874;8.430;2023-09-12T11:37:39;7.00;;;6.25;;
4575;SDS011;2300;51.874;8.430;2023-09-12T11:40:15;6.20;;;4.78;;
4575;SDS011;2300;51.874;8.430;2023-09-12T11:42:44;5.75;;;4.25;;
4575;SDS011;2300;51.874;8.430;2023-09-12T11:45:11;6.45;;;4.63;;
4575;SDS011;2300;51.874;8.430;2023-09-12T11:47:39;7.82;;;4.95;;
4575;SDS011;2300;51.874;8.430;2023-09-12T11:50:06;6.50;;;4.78;;
4575;SDS011;2300;51.874;8.430;2023-09-12T11:52:37;5.03;;;3.70;;
4575;SDS011;2300;51.874;8.430;2023-09-12T11:55:04;3.80;;;2.53;;
4575;SDS011;2300;51.874;8.430;2023-09-12T11:57:32;4.07;;;2.78;;
4575;SDS011;2300;51.874;8.430;2023-09-12T11:59:59;4.40;;;2.70;;
4575;SDS011;2300;51.874;8.430;2023-09-12T12:02:33;4.72;;;3.50;;
4575;SDS011;2300;51.874;8.430;2023-09-12T12:05:00;5.38;;;3.75;;
4575;SDS011;2300;51.874;8.430;2023-09-12T12:07:29;4.38;;;3.40;;
4575;SDS011;2300;51.874;8.430;2023-09-12T12:09:57;5.93;;;3.80;;
4575;SDS011;2300;51.874;8.430;2023-09-12T12:12:23;5.55;;;3.50;;
4575;SDS011;2300;51.874;8.430;2023-09-12T12:14:50;3.92;;;3.15;;
4575;SDS011;2300;51.874;8.430;2023-09-12T12:17:17;6.90;;;3.67;;
4575;SDS011;2300;51.874;8.430;2023-09-12T12:19:45;3.92;;;2.50;;
4575;SDS011;2300;51.874;8.430;2023-09-12T12:22:12;3.85;;;2.78;;
4575;SDS011;2300;51.874;8.430;2023-09-12T12:24:39;4.28;;;2.50;;
4575;SDS011;2300;51.874;8.430;2023-09-12T12:27:08;4.82;;;3.00;;
4575;SDS011;2300;51.874;8.430;2023-09-12T12:29:36;3.72;;;2.70;;
4575;SDS011;2300;51.874;8.430;2023-09-12T12:32:04;4.20;;;2.53;;
4575;SDS011;2300;51.874;8.430;2023-09-12T12:34:34;3.67;;;2.58;;
4575;SDS011;2300;51.874;8.430;2023-09-12T12:37:00;3.78;;;2.45;;
4575;SDS011;2300;51.874;8.430;2023-09-12T12:39:27;4.20;;;2.92;;
4575;SDS011;2300;51.874;8.430;2023-09-12T12:41:54;3.47;;;2.67;;
4575;SDS011;2300;51.874;8.430;2023-09-12T12:44:23;4.32;;;2.83;;
4575;SDS011;2300;51.874;8.430;2023-09-12T12:46:59;5.25;;;3.05;;
4575;SDS011;2300;51.874;8.430;2023-09-12T12:49:25;3.42;;;2.72;;
4575;SDS011;2300;51.874;8.430;2023-09-12T12:51:52;4.60;;;2.95;;
4575;SDS011;2300;51.874;8.430;2023-09-12T12:54:21;3.33;;;2.75;;
4575;SDS011;2300;51.874;8.430;2023-09-12T12:56:49;3.75;;;2.60;;
4575;SDS011;2300;51.874;8.430;2023-09-12T12:59:15;3.35;;;2.80;;
4575;SDS011;2300;51.874;8.430;2023-09-12T13:01:43;5.53;;;3.53;;
4575;SDS011;2300;51.874;8.430;2023-09-12T13:04:10;4.60;;;3.13;;
4575;SDS011;2300;51.874;8.430;2023-09-12T13:06:37;6.53;;;3.40;;
4575;SDS011;2300;51.874;8.430;2023-09-12T13:09:05;5.43;;;3.47;;
4575;SDS011;2300;51.874;8.430;2023-09-12T13:11:33;6.13;;;3.38;;
4575;SDS011;2300;51.874;8.430;2023-09-12T13:14:00;4.85;;;3.00;;
4575;SDS011;2300;51.874;8.430;2023-09-12T13:16:29;8.20;;;3.90;;
4575;SDS011;2300;51.874;8.430;2023-09-12T13:18:57;6.13;;;4.28;;
4575;SDS011;2300;51.874;8.430;2023-09-12T13:21:24;7.28;;;4.75;;
4575;SDS011;2300;51.874;8.430;2023-09-12T13:23:50;6.68;;;5.18;;
4575;SDS011;2300;51.874;8.430;2023-09-12T13:26:17;9.40;;;4.78;;
4575;SDS011;2300;51.874;8.430;2023-09-12T13:28:44;6.15;;;3.85;;
4575;SDS011;2300;51.874;8.430;2023-09-12T13:31:10;5.15;;;4.50;;
4575;SDS011;2300;51.874;8.430;2023-09-12T13:33:37;6.68;;;4.40;;
4575;SDS011;2300;51.874;8.430;2023-09-12T13:36:06;7.75;;;5.18;;
4575;SDS011;2300;51.874;8.430;2023-09-12T13:38:32;8.68;;;5.35;;
4575;SDS011;2300;51.874;8.430;2023-09-12T13:40:59;5.97;;;4.88;;
4575;SDS011;2300;51.874;8.430;2023-09-12T13:43:25;5.45;;;4.72;;
4575;SDS011;2300;51.874;8.430;2023-09-12T13:45:53;8.82;;;4.53;;
4575;SDS011;2300;51.874;8.430;2023-09-12T13:48:20;5.72;;;4.75;;
4575;SDS011;2300;51.874;8.430;2023-09-12T13:50:46;7.18;;;4.82;;
4575;SDS011;2300;51.874;8.430;2023-09-12T13:53:14;7.20;;;5.28;;
4575;SDS011;2300;51.874;8.430;2023-09-12T13:55:41;5.85;;;4.78;;
4575;SDS011;2300;51.874;8.430;2023-09-12T13:58:07;7.82;;;5.93;;
4575;SDS011;2300;51.874;8.430;2023-09-12T14:00:34;6.47;;;5.82;;
4575;SDS011;2300;51.874;8.430;2023-09-12T14:03:01;7.22;;;6.53;;
4575;SDS011;2300;51.874;8.430;2023-09-12T14:05:28;8.27;;;6.15;;
4575;SDS011;2300;51.874;8.430;2023-09-12T14:07:54;11.50;;;7.10;;
4575;SDS011;2300;51.874;8.430;2023-09-12T14:10:22;8.35;;;7.03;;
4575;SDS011;2300;51.874;8.430;2023-09-12T14:12:49;7.85;;;6.57;;
4575;SDS011;2300;51.874;8.430;2023-09-12T14:15:15;8.77;;;6.90;;
4575;SDS011;2300;51.874;8.430;2023-09-12T14:17:42;7.55;;;6.80;;
4575;SDS011;2300;51.874;8.430;2023-09-12T14:20:09;8.00;;;7.20;;
4575;SDS011;2300;51.874;8.430;2023-09-12T14:22:40;7.90;;;7.10;;
4575;SDS011;2300;51.874;8.430;2023-09-12T14:25:07;7.90;;;7.10;;
4575;SDS011;2300;51.874;8.430;2023-09-12T14:27:35;9.68;;;8.15;;
4575;SDS011;2300;51.874;8.430;2023-09-12T14:30:02;8.45;;;7.55;;
4575;SDS011;2300;51.874;8.430;2023-09-12T14:32:29;9.15;;;8.23;;
4575;SDS011;2300;51.874;8.430;2023-09-12T14:34:56;9.25;;;8.35;;
4575;SDS011;2300;51.874;8.430;2023-09-12T14:37:23;12.38;;;11.25;;
4575;SDS011;2300;51.874;8.430;2023-09-12T14:39:52;14.30;;;12.82;;
4575;SDS011;2300;51.874;8.430;2023-09-12T14:42:20;13.02;;;11.82;;
4575;SDS011;2300;51.874;8.430;2023-09-12T14:44:48;14.93;;;13.43;;
4575;SDS011;2300;51.874;8.430;2023-09-12T14:47:15;14.73;;;13.32;;
4575;SDS011;2300;51.874;8.430;2023-09-12T14:49:41;11.57;;;10.48;;
4575;SDS011;2300;51.874;8.430;2023-09-12T14:52:08;13.65;;;11.00;;
4575;SDS011;2300;51.874;8.430;2023-09-12T14:54:35;12.60;;;11.30;;
4575;SDS011;2300;51.874;8.430;2023-09-12T14:57:04;11.55;;;10.35;;
4575;SDS011;2300;51.874;8.430;2023-09-12T14:59:31;9.90;;;7.53;;
4575;SDS011;2300;51.874;8.430;2023-09-12T15:01:59;8.65;;;7.75;;
4575;SDS011;2300;51.874;8.430;2023-09-12T15:04:25;8.65;;;7.57;;
4575;SDS011;2300;51.874;8.430;2023-09-12T15:06:52;8.23;;;7.38;;
4575;SDS011;2300;51.874;8.430;2023-09-12T15:09:19;8.48;;;6.85;;